MMPN/UPN METAR and TAF weather

Enter ICAO airport designator
Station Type Date Time Source
MMPN METAR 2021/09/15 23:40 UTC NOAA

MMPN 152340Z 00000KT 8SM SCT018 BKN080 OVC260 20/19 A3007 RMK 8/461 HZY DZ B13 E29 TCU ARND


Station Type Date Time Source
MMPN Decoded METAR 2021/09/15 23:40 UTC NOAA

Uruapan / Gen Rayon, Mexico (MMPN) 19-24N 102-02W
Sep 15, 2021 - 07:40 PM EDT / 2021.09.15 2340 UTC
Wind: Calm:0
Visibility: 8 mile(s):0
Sky conditions: overcast
Weather: Towering cumulus clouds observed
Temperature: 68 F (20 C)
Dew Point: 66 F (19 C)
Relative Humidity: 93%
Pressure (altimeter): 30.07 in. Hg (1018 hPa)
ob: MMPN 152340Z 00000KT 8SM SCT018 BKN080 OVC260 20/19 A3007 RMK 8/461 HZY DZ B13 E29 TCU ARND
cycle: 23

Station Type Date Time Source
MMPN TAF 2021/09/16 06:16 UTC NOAA

TAF MMPN 160413Z 1606/1706 00000KT 5SM HZ SCT015 BKN200
TEMPO 1610/1614 2SM BR BKN010
FM161400 18005KT P6SM SCT020 SCT250
FM161900 18010KT P6SM BKN020CB BKN080
TEMPO 1620/1624 3SM TSRA
FM170100 00000KT P6SM SCT020 BKN200

Example: see airport list